Time;durP1;ratioP1;P1;durP2;ratioP2;P2;SDS_P1;SDS_P2;PMS_P1;PMS_P2;Temp;Humidity;BMP_temperature;BMP_pressure;BME280_temperature;BME280_humidity;BME280_pressure;Samples;Min_cycle;Max_cycle;Signal;HPM_P1;HPM_P2
2022/11/18 00:01:19;;;;;;;0.20;0.20;;;9.90;99.90;;;;;;4984973;28;20021;-75
2022/11/18 00:03:46;;;;;;;0.20;0.20;;;9.70;99.90;;;;;;5008836;28;20026;-75
2022/11/18 00:06:28;;;;;;;0.17;0.17;;;9.90;99.90;;;;;;5016780;28;20673;-75
2022/11/18 00:08:54;;;;;;;0.20;0.20;;;9.90;99.90;;;;;;5018275;28;20049;-75
2022/11/18 00:14:19;;;;;;;0.20;0.20;;;9.90;99.90;;;;;;5019145;28;20029;-74
2022/11/18 00:16:48;;;;;;;4.32;4.13;;;9.90;99.90;;;;;;5019208;28;20006;-75
2022/11/18 00:19:14;;;;;;;0.25;0.25;;;9.90;99.90;;;;;;5016763;28;20048;-75
2022/11/18 00:21:45;;;;;;;0.20;0.20;;;9.90;99.90;;;;;;5018001;28;20030;-75
2022/11/18 00:24:10;;;;;;;0.20;0.20;;;9.90;99.90;;;;;;5019187;28;20093;-75
2022/11/18 00:26:36;;;;;;;0.20;0.20;;;9.80;99.90;;;;;;5017991;28;20060;-75
2022/11/18 00:29:05;;;;;;;0.20;0.20;;;9.80;99.90;;;;;;5007208;28;20316;-74
2022/11/18 00:31:33;;;;;;;0.20;0.20;;;9.80;99.90;;;;;;5017343;28;20322;-74
2022/11/18 00:33:59;;;;;;;0.17;0.17;;;9.80;99.90;;;;;;5009051;28;20654;-75
2022/11/18 00:36:25;;;;;;;0.20;0.20;;;9.80;99.90;;;;;;5009463;28;20034;-75
2022/11/18 00:38:50;;;;;;;0.52;0.52;;;9.80;99.90;;;;;;5018515;28;20014;-75
2022/11/18 00:41:16;;;;;;;0.20;0.20;;;9.80;99.90;;;;;;4998319;28;20052;-75
2022/11/18 00:43:51;;;;;;;0.28;0.28;;;9.70;99.90;;;;;;5010420;28;20421;-75
2022/11/18 00:46:17;;;;;;;9.45;8.88;;;9.70;99.90;;;;;;5017491;28;20029;-75
2022/11/18 00:48:42;;;;;;;5.15;4.88;;;9.80;99.90;;;;;;5018085;28;20018;-75
2022/11/18 00:51:17;;;;;;;0.15;0.15;;;9.80;99.90;;;;;;5019201;28;20026;-74
2022/11/18 00:53:43;;;;;;;0.10;0.10;;;9.70;99.90;;;;;;5022570;28;20018;-75
2022/11/18 00:56:09;;;;;;;0.10;0.10;;;9.70;99.90;;;;;;5021690;28;20019;-74
2022/11/18 00:58:35;;;;;;;0.10;0.10;;;9.70;99.90;;;;;;5020449;28;20098;-75
2022/11/18 01:01:01;;;;;;;0.10;0.10;;;9.70;99.90;;;;;;5021643;28;20749;-73
2022/11/18 01:03:29;;;;;;;0.10;0.10;;;9.60;99.90;;;;;;5010461;28;20030;-75
2022/11/18 01:05:55;;;;;;;0.10;0.10;;;9.50;99.90;;;;;;5010991;28;20029;-74
2022/11/18 01:08:22;;;;;;;1.17;1.17;;;9.50;99.90;;;;;;5023975;28;20021;-75
2022/11/18 01:10:49;;;;;;;0.20;0.20;;;9.40;99.90;;;;;;5020131;28;20018;-78
2022/11/18 01:13:19;;;;;;;1.05;1.05;;;9.40;99.90;;;;;;5012727;28;20109;-75
2022/11/18 01:16:13;;;;;;;0.20;0.20;;;9.30;99.90;;;;;;5004684;28;20029;-75
2022/11/18 01:18:39;;;;;;;;;;;9.30;99.90;;;;;;5020682;28;20038;-73
2022/11/18 01:21:05;;;;;;;0.20;0.20;;;9.30;99.90;;;;;;5019873;28;19908;-74
2022/11/18 01:23:32;;;;;;;0.20;0.20;;;9.10;99.90;;;;;;5017091;28;20432;-75
2022/11/18 01:26:04;;;;;;;0.10;0.10;;;9.10;99.90;;;;;;5010595;28;20025;-75
2022/11/18 01:28:31;;;;;;;0.20;0.20;;;9.10;99.90;;;;;;5000212;28;20053;-75
2022/11/18 01:31:05;;;;;;;0.17;0.17;;;9.10;99.90;;;;;;5020694;28;20018;-74
2022/11/18 01:33:32;;;;;;;0.17;0.17;;;9.10;99.90;;;;;;5000742;28;20690;-75
2022/11/18 01:36:07;;;;;;;0.20;0.20;;;9.00;99.90;;;;;;5018018;28;20010;-75
2022/11/18 01:38:36;;;;;;;0.10;0.10;;;9.00;99.90;;;;;;5017885;28;20164;-75
2022/11/18 01:41:01;;;;;;;0.10;0.10;;;9.00;99.90;;;;;;5013340;28;20029;-74
2022/11/18 01:43:51;;;;;;;0.20;0.20;;;9.10;99.90;;;;;;5016893;28;20018;-76
2022/11/18 01:46:18;;;;;;;0.10;0.10;;;9.10;99.90;;;;;;5010285;28;20116;-74
2022/11/18 01:48:49;;;;;;;0.20;0.20;;;9.10;99.90;;;;;;5018233;28;20057;-75
2022/11/18 01:51:19;;;;;;;0.13;0.13;;;7.30;99.90;;;;;;5018779;28;20045;-74
2022/11/18 01:53:50;;;;;;;0.20;0.20;;;9.10;99.90;;;;;;5018340;28;20025;-75
2022/11/18 01:56:24;;;;;;;0.20;0.20;;;9.10;99.90;;;;;;5017556;28;20034;-74
2022/11/18 01:59:01;;;;;;;0.20;0.20;;;9.00;99.90;;;;;;5020238;28;20077;-75
2022/11/18 02:01:27;;;;;;;;;;;9.10;99.90;;;;;;5002259;28;20531;-75
2022/11/18 02:03:58;;;;;;;0.10;0.10;;;7.40;99.90;;;;;;5019922;28;19957;-74
2022/11/18 02:06:23;;;;;;;0.20;0.20;;;9.00;99.90;;;;;;5021264;28;20113;-75
2022/11/18 02:08:53;;;;;;;0.20;0.20;;;9.00;99.90;;;;;;5022646;28;20022;-79
2022/11/18 02:14:08;;;;;;;0.25;0.25;;;8.90;99.90;;;;;;5012683;28;20111;-75
2022/11/18 02:17:15;;;;;;;0.20;0.20;;;8.90;99.90;;;;;;5011520;28;20021;-77
2022/11/18 02:19:47;;;;;;;0.10;0.10;;;8.90;99.90;;;;;;4986862;28;20022;-76
2022/11/18 02:22:31;;;;;;;0.20;0.20;;;9.00;99.90;;;;;;5014701;28;20049;-75
2022/11/18 02:25:05;;;;;;;0.10;0.10;;;8.90;99.90;;;;;;5025373;28;20018;-75
2022/11/18 02:27:54;;;;;;;0.30;0.30;;;8.90;99.90;;;;;;5007216;28;20034;-76
2022/11/18 02:30:20;;;;;;;0.20;0.20;;;8.90;99.90;;;;;;5023589;28;20036;-76
2022/11/18 02:33:33;;;;;;;0.20;0.20;;;8.90;99.90;;;;;;5025087;28;20033;-76
2022/11/18 02:36:12;;;;;;;0.10;0.10;;;9.00;99.90;;;;;;4922421;29;20067;-75
2022/11/18 02:38:45;;;;;;;0.20;0.20;;;9.00;99.90;;;;;;4907632;29;20036;-77
2022/11/18 02:41:20;;;;;;;0.10;0.10;;;9.10;99.90;;;;;;4926350;29;20028;-76
2022/11/18 02:43:58;;;;;;;0.10;0.10;;;9.10;99.90;;;;;;4922240;29;20519;-76
2022/11/18 02:46:33;;;;;;;0.20;0.20;;;9.10;99.90;;;;;;4919361;29;20028;-75
2022/11/18 02:49:04;;;;;;;0.13;0.13;;;9.20;99.90;;;;;;4922948;29;20016;-75
2022/11/18 02:51:32;;;;;;;0.20;0.20;;;9.20;99.90;;;;;;4921163;29;20032;-75
2022/11/18 02:54:02;;;;;;;0.45;0.45;;;9.30;99.90;;;;;;4918483;29;20332;-75
2022/11/18 02:56:30;;;;;;;0.20;0.20;;;9.30;99.90;;;;;;4910719;29;20080;-75
2022/11/18 02:58:55;;;;;;;0.20;0.20;;;9.30;99.90;;;;;;4901415;29;20048;-75
2022/11/18 03:01:41;;;;;;;0.10;0.10;;;9.40;99.90;;;;;;4917320;29;20518;-75
2022/11/18 03:04:07;;;;;;;0.20;0.20;;;10.70;99.90;;;;;;4897340;29;20036;-75
2022/11/18 03:06:53;;;;;;;0.20;0.20;;;9.50;99.90;;;;;;4898115;29;20036;-76
2022/11/18 03:09:30;;;;;;;0.10;0.10;;;9.70;99.90;;;;;;4898610;29;20095;-75
2022/11/18 03:12:01;;;;;;;0.17;0.17;;;9.70;99.90;;;;;;4921250;29;20756;-76
2022/11/18 03:15:07;;;;;;;0.20;0.20;;;9.70;99.90;;;;;;4952695;28;20035;-76
2022/11/18 03:18:05;;;;;;;0.20;0.20;;;9.80;99.90;;;;;;4955480;29;20091;-75
2022/11/18 03:20:36;;;;;;;0.17;0.17;;;9.80;99.90;;;;;;4955608;29;20019;-75
2022/11/18 03:23:24;;;;;;;0.20;0.20;;;9.80;99.90;;;;;;4955064;29;20046;-75
2022/11/18 03:26:06;;;;;;;0.10;0.10;;;9.80;99.90;;;;;;4947527;29;20118;-76
2022/11/18 03:28:38;;;;;;;7.05;6.65;;;9.70;99.90;;;;;;4954757;29;20798;-76
2022/11/18 03:31:07;;;;;;;0.20;0.20;;;9.40;99.90;;;;;;4955122;29;20036;-76
2022/11/18 03:33:39;;;;;;;0.15;0.15;;;9.70;99.90;;;;;;4954831;29;20046;-75
2022/11/18 03:36:08;;;;;;;0.20;0.20;;;9.70;99.90;;;;;;4991143;28;20062;-75
2022/11/18 03:38:39;;;;;;;0.20;0.20;;;9.70;99.90;;;;;;4996222;28;20030;-75
2022/11/18 03:41:14;;;;;;;0.22;0.22;;;9.60;99.90;;;;;;4996161;28;20018;-76
2022/11/18 03:43:47;;;;;;;0.20;0.20;;;9.50;99.90;;;;;;4987248;28;20030;-75
2022/11/18 03:46:15;;;;;;;0.10;0.10;;;9.60;99.90;;;;;;4978814;28;20034;-76
2022/11/18 03:48:46;;;;;;;0.20;0.20;;;9.60;99.90;;;;;;4996054;28;20029;-76
2022/11/18 03:51:16;;;;;;;0.10;0.10;;;9.60;99.90;;;;;;4998934;28;20095;-76
2022/11/18 03:53:48;;;;;;;0.10;0.10;;;9.50;99.90;;;;;;4998502;28;20891;-75
2022/11/18 03:56:21;;;;;;;0.85;0.85;;;9.50;99.90;;;;;;4998798;28;20030;-76
2022/11/18 03:59:01;;;;;;;0.15;0.15;;;9.50;99.90;;;;;;5007500;28;20674;-76
2022/11/18 04:01:35;;;;;;;0.32;0.32;;;9.50;99.90;;;;;;5019532;28;20021;-75
2022/11/18 04:04:02;;;;;;;0.20;0.20;;;9.50;99.90;;;;;;5019145;28;20025;-75
2022/11/18 04:06:53;;;;;;;0.20;0.20;;;9.40;99.90;;;;;;5018508;28;20048;-75
2022/11/18 04:09:28;;;;;;;0.13;0.13;;;9.40;99.90;;;;;;5018251;28;20088;-75
2022/11/18 04:12:01;;;;;;;0.20;0.20;;;9.40;99.90;;;;;;4999182;28;20026;-75
2022/11/18 04:14:38;;;;;;;0.10;0.10;;;9.40;99.90;;;;;;5017061;28;20022;-75
2022/11/18 04:17:23;;;;;;;1.77;1.75;;;9.40;99.90;;;;;;5016499;28;20273;-75
2022/11/18 04:19:52;;;;;;;0.10;0.10;;;9.50;99.90;;;;;;5008667;28;20014;-75
2022/11/18 04:22:18;;;;;;;1.00;1.00;;;9.40;99.90;;;;;;4992337;28;20029;-76
2022/11/18 04:24:44;;;;;;;0.20;0.20;;;9.50;99.90;;;;;;4994789;28;20026;-76
2022/11/18 04:27:10;;;;;;;0.30;0.30;;;9.50;99.90;;;;;;4996295;28;20095;-76
2022/11/18 04:29:36;;;;;;;0.17;0.17;;;9.60;99.90;;;;;;4997620;28;20142;-76
2022/11/18 04:32:03;;;;;;;0.20;0.20;;;9.60;99.90;;;;;;4989512;28;20086;-75
2022/11/18 04:34:29;;;;;;;0.20;0.20;;;9.70;99.90;;;;;;4996490;28;20030;-75
2022/11/18 04:36:56;;;;;;;0.10;0.10;;;9.70;99.90;;;;;;4998239;28;20018;-75
2022/11/18 04:39:26;;;;;;;0.10;0.10;;;9.70;99.90;;;;;;4996396;28;20030;-76
2022/11/18 04:41:55;;;;;;;0.10;0.10;;;9.70;99.90;;;;;;4997244;28;20053;-76
2022/11/18 04:44:29;;;;;;;0.20;0.20;;;9.70;99.90;;;;;;4995988;28;20054;-75
2022/11/18 04:46:56;;;;;;;0.10;0.10;;;9.80;99.90;;;;;;4992489;28;20109;-76
2022/11/18 04:49:23;;;;;;;0.17;0.17;;;9.80;99.90;;;;;;4989699;28;20018;-76
2022/11/18 04:51:49;;;;;;;0.20;0.20;;;9.80;99.90;;;;;;4990900;28;20018;-77
2022/11/18 04:54:16;;;;;;;0.10;0.10;;;9.80;99.90;;;;;;4985414;28;20025;-78
2022/11/18 04:56:43;;;;;;;0.20;0.20;;;9.90;99.90;;;;;;4993908;28;20106;-76
2022/11/18 04:59:10;;;;;;;0.10;0.10;;;10.10;99.90;;;;;;5012762;28;20030;-77
2022/11/18 05:01:36;;;;;;;0.20;0.20;;;10.10;99.90;;;;;;5012830;28;20019;-76
2022/11/18 05:04:04;;;;;;;0.15;0.15;;;10.00;99.90;;;;;;5013492;28;20913;-76
2022/11/18 05:06:31;;;;;;;0.20;0.20;;;10.30;99.90;;;;;;5015938;28;20656;-75
2022/11/18 05:08:57;;;;;;;0.20;0.20;;;10.40;99.90;;;;;;5015214;28;20101;-75
2022/11/18 05:14:10;;;;;;;0.20;0.20;;;10.60;99.90;;;;;;5014099;28;20118;-74
2022/11/18 05:16:37;;;;;;;0.10;0.10;;;10.60;99.90;;;;;;5013970;28;20111;-74
2022/11/18 05:19:07;;;;;;;0.20;0.20;;;10.60;99.90;;;;;;5012725;28;20033;-75
2022/11/18 05:21:33;;;;;;;0.20;0.20;;;10.60;99.90;;;;;;5013188;28;20025;-75
2022/11/18 05:24:01;;;;;;;0.20;0.20;;;10.50;99.90;;;;;;5014378;28;20073;-76
2022/11/18 05:26:26;;;;;;;0.20;0.20;;;10.50;99.90;;;;;;5014541;28;20092;-76
2022/11/18 05:28:52;;;;;;;0.20;0.20;;;10.60;99.90;;;;;;5013122;28;20034;-76
2022/11/18 05:31:18;;;;;;;0.20;0.20;;;10.60;99.90;;;;;;5014206;28;20026;-76
2022/11/18 05:33:45;;;;;;;0.10;0.10;;;10.80;99.90;;;;;;5015890;28;20022;-76
2022/11/18 05:36:20;;;;;;;0.20;0.20;;;10.80;99.90;;;;;;5014886;28;20104;-76
2022/11/18 05:38:46;;;;;;;0.10;0.10;;;11.40;99.90;;;;;;4999015;28;20022;-75
2022/11/18 05:44:04;;;;;;;0.70;0.70;;;11.70;99.90;;;;;;4929612;29;20032;-75
2022/11/18 05:46:32;;;;;;;0.20;0.20;;;11.90;99.90;;;;;;4937491;29;20040;-76
2022/11/18 05:48:58;;;;;;;0.20;0.20;;;12.00;99.90;;;;;;4935345;29;20144;-77
2022/11/18 05:51:24;;;;;;;0.57;0.57;;;12.00;99.90;;;;;;4941586;29;20023;-75
2022/11/18 05:53:51;;;;;;;1.92;1.85;;;11.80;99.90;;;;;;4941930;29;20690;-75
2022/11/18 05:56:28;;;;;;;0.20;0.20;;;11.60;99.90;;;;;;4940663;29;20043;-76
2022/11/18 05:58:54;;;;;;;0.20;0.20;;;11.60;99.90;;;;;;4923361;29;20032;-77
2022/11/18 06:01:43;;;;;;;0.20;0.20;;;11.60;99.90;;;;;;4937773;29;20039;-77
2022/11/18 06:04:33;;;;;;;0.17;0.17;;;11.60;99.90;;;;;;4931084;29;20689;-78
2022/11/18 06:07:26;;;;;;;0.20;0.20;;;11.60;99.90;;;;;;4929012;29;20055;-77
2022/11/18 06:09:57;;;;;;;0.20;0.20;;;11.60;99.90;;;;;;4936650;29;20106;-76
2022/11/18 06:12:29;;;;;;;0.20;0.20;;;11.50;99.90;;;;;;4934752;29;20027;-75
2022/11/18 06:14:58;;;;;;;0.60;0.60;;;11.50;99.90;;;;;;4933122;29;20036;-75
2022/11/18 06:17:29;;;;;;;0.20;0.20;;;11.50;99.90;;;;;;4932808;29;20059;-75
2022/11/18 06:19:56;;;;;;;1.50;1.45;;;11.00;99.90;;;;;;4936628;28;20122;-75
2022/11/18 06:22:22;;;;;;;0.30;0.30;;;11.30;99.90;;;;;;5014919;28;20018;-79
2022/11/18 06:24:48;;;;;;;0.20;0.20;;;11.20;99.90;;;;;;5014882;28;20036;-75
2022/11/18 06:27:15;;;;;;;0.20;0.20;;;11.20;99.90;;;;;;4989775;28;20018;-75
2022/11/18 06:29:41;;;;;;;0.32;0.32;;;11.20;99.90;;;;;;5015661;28;20018;-75
2022/11/18 06:32:07;;;;;;;0.22;0.22;;;11.00;99.90;;;;;;5007969;28;20103;-75
2022/11/18 06:34:33;;;;;;;0.20;0.20;;;11.00;99.90;;;;;;5015606;28;20073;-75
2022/11/18 06:36:58;;;;;;;0.20;0.20;;;10.80;99.90;;;;;;5015477;28;20098;-77
2022/11/18 06:39:24;;;;;;;0.20;0.20;;;10.70;99.90;;;;;;5008186;28;20025;-75
2022/11/18 06:41:54;;;;;;;0.20;0.20;;;10.70;99.90;;;;;;5002476;28;20018;-74
2022/11/18 06:44:20;;;;;;;0.40;0.40;;;10.60;99.90;;;;;;5001931;28;20689;-75
2022/11/18 06:46:54;;;;;;;0.20;0.20;;;10.80;99.90;;;;;;5003345;28;20041;-75
2022/11/18 06:49:21;;;;;;;0.20;0.20;;;10.70;99.90;;;;;;5002842;28;20057;-74
2022/11/18 06:51:46;;;;;;;0.10;0.10;;;8.30;99.90;;;;;;5001851;28;20018;-75
2022/11/18 06:54:16;;;;;;;0.20;0.20;;;;;;;;;;4983855;28;20040;-75
2022/11/18 06:56:42;;;;;;;0.20;0.20;;;11.20;99.90;;;;;;5002413;28;20036;-75
2022/11/18 06:59:08;;;;;;;0.20;0.20;;;11.80;99.90;;;;;;4984163;28;20042;-75
2022/11/18 07:01:37;;;;;;;0.57;0.57;;;11.60;99.90;;;;;;5001066;28;20091;-75
2022/11/18 07:04:03;;;;;;;0.20;0.20;;;11.60;99.90;;;;;;5000818;28;20026;-75
2022/11/18 07:06:31;;;;;;;0.20;0.20;;;11.90;99.90;;;;;;4991012;28;20091;-75
2022/11/18 07:08:59;;;;;;;0.13;0.13;;;11.70;99.90;;;;;;5004238;28;20101;-76
2022/11/18 07:11:27;;;;;;;0.20;0.20;;;12.00;99.90;;;;;;5009807;28;20026;-75
2022/11/18 07:13:53;;;;;;;0.20;0.20;;;12.50;99.90;;;;;;5007143;28;20045;-75
2022/11/18 07:16:29;;;;;;;0.20;0.20;;;13.10;99.90;;;;;;5017198;28;20034;-79
2022/11/18 07:19:11;;;;;;;0.10;0.10;;;13.00;99.90;;;;;;5001626;28;20061;-86
2022/11/18 07:21:38;;;;;;;0.20;0.20;;;13.10;99.90;;;;;;5006077;28;20618;-79
2022/11/18 07:24:06;;;;;;;0.20;0.20;;;13.20;99.90;;;;;;5008553;28;20677;-76
2022/11/18 07:26:33;;;;;;;0.20;0.20;;;13.30;99.90;;;;;;5014097;28;20191;-77
2022/11/18 07:29:00;;;;;;;0.20;0.20;;;13.50;99.90;;;;;;5007984;28;20018;-83
2022/11/18 07:31:25;;;;;;;30.67;6.32;;;13.70;99.90;;;;;;5011351;28;20022;-80
2022/11/18 07:33:54;;;;;;;0.20;0.20;;;13.80;99.90;;;;;;5005466;28;20014;-84
2022/11/18 07:36:26;;;;;;;0.17;0.17;;;13.90;99.90;;;;;;5001144;28;20468;-77
2022/11/18 07:38:57;;;;;;;0.20;0.20;;;14.70;99.90;;;;;;5000136;28;20057;-79
2022/11/18 07:41:25;;;;;;;0.17;0.17;;;14.00;99.90;;;;;;4999424;28;20041;-78
2022/11/18 07:43:53;;;;;;;0.20;0.20;;;14.20;99.90;;;;;;4999222;28;20029;-79
2022/11/18 07:46:23;;;;;;;0.20;0.20;;;14.30;99.90;;;;;;4999242;28;20207;-76
2022/11/18 07:48:52;;;;;;;0.10;0.10;;;14.30;99.90;;;;;;4999253;28;20020;-77
2022/11/18 07:51:20;;;;;;;0.15;0.15;;;14.40;99.90;;;;;;4999523;28;20080;-83
2022/11/18 07:53:46;;;;;;;0.10;0.10;;;14.50;99.90;;;;;;4999169;28;20018;-76
2022/11/18 07:56:13;;;;;;;0.20;0.20;;;14.60;99.90;;;;;;4998830;28;20084;-77
2022/11/18 07:58:39;;;;;;;0.15;0.15;;;14.80;99.90;;;;;;4998926;28;20695;-78
2022/11/18 08:01:17;;;;;;;0.10;0.10;;;15.00;99.90;;;;;;4998653;28;20018;-81
2022/11/18 08:03:44;;;;;;;0.10;0.10;;;15.20;99.90;;;;;;4981305;28;20076;-79
2022/11/18 08:06:12;;;;;;;0.10;0.10;;;15.30;99.90;;;;;;4998950;28;20026;-74
2022/11/18 08:08:38;;;;;;;0.10;0.10;;;15.50;99.90;;;;;;4979997;28;20126;-75
2022/11/18 08:11:07;;;;;;;0.10;0.10;;;15.60;99.90;;;;;;4997362;28;20558;-74
2022/11/18 08:13:34;;;;;;;0.10;0.10;;;15.60;99.90;;;;;;4997520;28;20513;-75
2022/11/18 08:16:00;;;;;;;0.20;0.20;;;15.80;99.90;;;;;;4997587;28;20018;-74
2022/11/18 08:18:28;;;;;;;0.10;0.10;;;15.80;99.90;;;;;;4997406;28;20080;-75
2022/11/18 08:20:54;;;;;;;0.10;0.10;;;15.80;99.90;;;;;;4997318;28;20034;-77
2022/11/18 08:23:19;;;;;;;0.15;0.15;;;15.70;99.90;;;;;;4997261;28;20667;-74
2022/11/18 08:25:46;;;;;;;0.10;0.10;;;15.40;99.90;;;;;;4996913;28;20066;-76
2022/11/18 08:28:13;;;;;;;0.10;0.10;;;15.80;99.90;;;;;;4997412;28;20015;-75
2022/11/18 08:30:39;;;;;;;0.10;0.10;;;16.00;99.90;;;;;;4997322;28;20026;-75
2022/11/18 08:33:05;;;;;;;0.10;0.10;;;16.00;99.90;;;;;;4997317;28;20331;-74
2022/11/18 08:35:32;;;;;;;0.20;0.20;;;16.10;99.90;;;;;;4997347;28;20587;-74
2022/11/18 08:37:58;;;;;;;0.10;0.10;;;16.10;99.90;;;;;;4979128;28;20099;-75
2022/11/18 08:40:24;;;;;;;0.10;0.10;;;16.20;99.90;;;;;;4997088;28;20022;-76
2022/11/18 08:42:50;;;;;;;0.10;0.10;;;16.40;99.90;;;;;;4979718;28;20014;-73
2022/11/18 08:45:16;;;;;;;0.22;0.22;;;16.40;99.90;;;;;;4997255;28;20065;-73
2022/11/18 08:47:42;;;;;;;0.25;0.25;;;16.40;99.90;;;;;;4997129;28;20026;-74
2022/11/18 08:50:12;;;;;;;0.10;0.10;;;16.30;99.90;;;;;;4997560;28;20034;-78
2022/11/18 08:52:38;;;;;;;0.10;0.10;;;16.30;99.90;;;;;;4997412;28;20029;-75
2022/11/18 08:55:07;;;;;;;0.13;0.13;;;16.20;99.90;;;;;;4997154;28;20445;-75
2022/11/18 08:57:33;;;;;;;0.40;0.40;;;13.20;99.90;;;;;;4996912;28;20045;-76
2022/11/18 08:59:58;;;;;;;0.10;0.10;;;16.20;99.90;;;;;;4997085;28;20220;-74
2022/11/18 09:02:24;;;;;;;0.15;0.15;;;16.10;99.90;;;;;;4978513;28;20030;-74
2022/11/18 09:04:51;;;;;;;0.10;0.10;;;16.20;99.90;;;;;;4998264;28;20029;-74
2022/11/18 09:07:18;;;;;;;0.13;0.13;;;16.00;99.90;;;;;;4980363;28;20026;-74
2022/11/18 09:09:45;;;;;;;0.20;0.20;;;16.00;99.90;;;;;;4998991;28;20026;-75
2022/11/18 09:12:13;;;;;;;0.15;0.15;;;15.90;99.90;;;;;;4999402;28;20029;-74
2022/11/18 09:14:41;;;;;;;0.10;0.10;;;15.90;99.90;;;;;;4983714;28;20030;-75
2022/11/18 09:17:07;;;;;;;0.10;0.10;;;15.80;99.90;;;;;;5002845;28;20484;-75
2022/11/18 09:19:33;;;;;;;0.10;0.10;;;15.80;99.90;;;;;;5003203;28;20033;-75
2022/11/18 09:21:59;;;;;;;0.10;0.10;;;15.80;99.90;;;;;;5004206;28;20084;-75
2022/11/18 09:24:24;;;;;;;0.10;0.10;;;15.80;99.90;;;;;;5003435;28;20028;-74
2022/11/18 09:26:52;;;;;;;0.10;0.10;;;15.90;99.90;;;;;;5003911;28;20255;-74
2022/11/18 09:29:18;;;;;;;0.10;0.10;;;15.80;99.90;;;;;;4984875;28;20030;-75
2022/11/18 09:31:44;;;;;;;0.10;0.10;;;15.80;99.90;;;;;;5002365;28;20030;-74
2022/11/18 09:34:10;;;;;;;0.10;0.10;;;15.80;99.90;;;;;;5003268;28;20018;-74
2022/11/18 09:36:36;;;;;;;0.10;0.10;;;15.70;99.90;;;;;;5002097;28;20010;-75
2022/11/18 09:39:02;;;;;;;0.10;0.10;;;15.80;99.90;;;;;;5001914;28;20095;-74
2022/11/18 09:41:35;;;;;;;0.10;0.10;;;15.80;99.90;;;;;;5008173;28;20104;-79
2022/11/18 09:44:07;;;;;;;0.10;0.10;;;15.90;99.90;;;;;;4985097;28;20473;-74
2022/11/18 09:46:50;;;;;;;0.10;0.10;;;15.90;99.90;;;;;;5002554;28;20119;-76
2022/11/18 09:49:45;;;;;;;0.10;0.10;;;15.90;99.90;;;;;;5001208;28;20026;-73
2022/11/18 09:52:20;;;;;;;0.10;0.10;;;16.00;99.90;;;;;;4902447;29;20087;-75
2022/11/18 09:54:46;;;;;;;0.10;0.10;;;16.00;99.90;;;;;;4902104;29;20028;-75
2022/11/18 09:57:18;;;;;;;0.45;0.45;;;16.10;99.90;;;;;;4899928;29;20049;-75
2022/11/18 09:59:44;;;;;;;0.20;0.20;;;16.20;99.90;;;;;;4884658;29;20083;-77
2022/11/18 10:02:22;;;;;;;0.10;0.10;;;16.40;99.90;;;;;;4887500;29;20052;-75
2022/11/18 10:04:48;;;;;;;0.10;0.10;;;16.50;99.90;;;;;;4885470;29;20040;-75
2022/11/18 10:07:26;;;;;;;0.10;0.10;;;16.70;99.90;;;;;;4884262;29;20046;-74
2022/11/18 10:09:55;;;;;;;0.10;0.10;;;16.80;99.90;;;;;;4867646;29;20028;-74
2022/11/18 10:12:39;;;;;;;0.25;0.25;;;16.80;99.90;;;;;;4883698;29;20031;-74
2022/11/18 10:15:07;;;;;;;0.10;0.10;;;17.00;99.90;;;;;;4883231;29;20040;-74
2022/11/18 10:17:52;;;;;;;0.10;0.10;;;17.00;99.90;;;;;;4882699;29;20205;-74
2022/11/18 10:20:35;;;;;;;0.20;0.20;;;17.00;99.90;;;;;;4866618;29;20152;-72
2022/11/18 10:23:21;;;;;;;0.10;0.10;;;17.00;99.90;;;;;;4882131;29;20036;-73
2022/11/18 10:25:48;;;;;;;0.10;0.10;;;17.20;99.40;;;;;;4882139;29;20043;-77
2022/11/18 10:28:23;;;;;;;0.10;0.10;;;16.90;99.90;;;;;;4916115;28;20042;-75
2022/11/18 10:30:49;;;;;;;0.55;0.55;;;16.70;99.90;;;;;;4981385;28;20035;-74
2022/11/18 10:33:21;;;;;;;0.10;0.10;;;16.70;99.90;;;;;;4981066;28;20094;-75
2022/11/18 10:35:47;;;;;;;0.10;0.10;;;16.50;99.90;;;;;;4980956;28;20022;-75
2022/11/18 10:38:19;;;;;;;0.10;0.10;;;16.50;99.90;;;;;;4980927;28;20878;-74
2022/11/18 10:41:00;;;;;;;0.10;0.10;;;16.40;99.90;;;;;;4980636;28;20030;-74
2022/11/18 10:43:53;;;;;;;0.10;0.10;;;16.60;99.90;;;;;;4981071;28;20105;-74
2022/11/18 10:46:26;;;;;;;0.10;0.10;;;15.60;99.90;;;;;;4980901;28;20045;-73
2022/11/18 10:49:07;;;;;;;0.10;0.10;;;16.30;99.90;;;;;;4981040;28;20019;-74
2022/11/18 10:51:35;;;;;;;0.10;0.10;;;16.30;99.90;;;;;;4980619;28;20080;-74
2022/11/18 10:54:08;;;;;;;0.10;0.10;;;16.60;99.90;;;;;;4980764;28;20025;-73
2022/11/18 10:56:51;;;;;;;0.10;0.10;;;16.20;99.90;;;;;;4981104;28;20922;-74
2022/11/18 10:59:40;;;;;;;0.10;0.10;;;16.20;99.90;;;;;;4980426;28;20649;-74
2022/11/18 11:02:39;;;;;;;0.10;0.10;;;16.20;99.90;;;;;;4980270;28;20204;-74
2022/11/18 11:05:21;;;;;;;0.10;0.10;;;16.10;99.90;;;;;;4919911;29;20758;-74
2022/11/18 11:08:04;;;;;;;0.10;0.10;;;16.10;99.90;;;;;;4920212;29;20594;-75
2022/11/18 11:10:33;;;;;;;0.10;0.10;;;16.10;99.90;;;;;;4919567;29;20769;-77
2022/11/18 11:13:03;;;;;;;0.10;0.10;;;16.50;99.90;;;;;;4919720;29;20165;-74
2022/11/18 11:15:50;;;;;;;0.10;0.10;;;16.10;99.90;;;;;;4919790;29;20038;-76
2022/11/18 11:18:41;;;;;;;0.10;0.10;;;19.20;99.90;;;;;;4919588;29;20159;-74
2022/11/18 11:21:16;;;;;;;1.00;1.00;;;16.20;99.90;;;;;;4919566;29;20127;-77
2022/11/18 11:23:46;;;;;;;0.20;0.20;;;16.10;99.90;;;;;;4919369;29;20039;-75
2022/11/18 11:26:43;;;;;;;0.10;0.10;;;15.90;99.90;;;;;;4919347;29;20035;-74
2022/11/18 11:29:22;;;;;;;0.10;0.10;;;16.00;99.90;;;;;;4919663;29;20209;-75
2022/11/18 11:32:16;;;;;;;0.10;0.10;;;16.20;99.90;;;;;;4919846;29;20495;-79
2022/11/18 11:34:47;;;;;;;0.10;0.10;;;16.10;99.90;;;;;;4919399;29;20674;-74
2022/11/18 11:37:40;;;;;;;0.10;0.10;;;16.10;99.90;;;;;;4903383;29;20043;-74
2022/11/18 11:40:38;;;;;;;0.10;0.10;;;16.50;99.90;;;;;;4933898;28;20049;-74
2022/11/18 11:43:21;;;;;;;0.10;0.10;;;16.30;99.90;;;;;;4979603;28;20034;-74
2022/11/18 11:45:50;;;;;;;;;;;18.70;99.90;;;;;;4979926;28;20042;-75
2022/11/18 11:48:25;;;;;;;0.10;0.10;;;16.30;99.90;;;;;;4962500;28;19901;-74
2022/11/18 11:50:54;;;;;;;0.10;0.10;;;16.30;99.90;;;;;;4979345;28;20014;-74
2022/11/18 11:53:48;;;;;;;0.10;0.10;;;16.40;99.90;;;;;;4979787;28;20022;-74
2022/11/18 11:56:41;;;;;;;0.10;0.10;;;16.50;99.90;;;;;;4961984;28;20025;-74
2022/11/18 11:59:16;;;;;;;0.10;0.10;;;16.50;99.90;;;;;;4998286;28;20089;-85
2022/11/18 12:02:17;;;;;;;0.10;0.10;;;16.50;99.90;;;;;;4981431;28;20018;-75
2022/11/18 12:04:56;;;;;;;0.10;0.10;;;16.40;99.90;;;;;;4999060;28;20037;-74
2022/11/18 12:07:31;;;;;;;0.28;0.28;;;16.40;99.90;;;;;;4998823;28;20116;-86
2022/11/18 12:10:36;;;;;;;0.10;0.10;;;16.30;99.90;;;;;;4998407;28;20026;-73
2022/11/18 12:13:10;;;;;;;0.10;0.10;;;16.30;99.90;;;;;;4884101;29;20040;-74
2022/11/18 12:15:53;;;;;;;0.10;0.10;;;16.20;99.90;;;;;;4899372;29;20035;-75
2022/11/18 12:18:29;;;;;;;0.10;0.10;;;16.30;99.90;;;;;;4883775;29;20707;-74
2022/11/18 12:20:55;;;;;;;0.10;0.10;;;14.50;99.90;;;;;;4899397;29;20111;-73
2022/11/18 12:23:26;;;;;;;0.17;0.17;;;16.30;99.90;;;;;;4899360;29;20825;-74
2022/11/18 12:25:56;;;;;;;0.10;0.10;;;16.30;99.90;;;;;;4899414;29;20084;-74
2022/11/18 12:28:39;;;;;;;0.63;0.63;;;15.70;99.90;;;;;;4900546;29;20107;-79
2022/11/18 12:31:17;;;;;;;0.10;0.10;;;16.20;99.90;;;;;;4915138;29;20140;-77
2022/11/18 12:33:47;;;;;;;0.10;0.10;;;16.20;99.90;;;;;;4914166;29;20260;-75
2022/11/18 12:36:32;;;;;;;0.10;0.10;;;16.20;99.90;;;;;;4901471;29;20167;-74
2022/11/18 12:39:18;;;;;;;0.10;0.10;;;16.00;99.90;;;;;;4901282;29;20077;-74
2022/11/18 12:44:29;;;;;;;0.10;0.10;;;15.90;99.90;;;;;;4901327;29;20290;-77
2022/11/18 12:46:59;;;;;;;0.10;0.10;;;15.90;99.90;;;;;;4902953;29;20040;-75
2022/11/18 12:49:25;;;;;;;0.10;0.10;;;14.10;99.90;;;;;;4919702;28;20088;-74
2022/11/18 12:51:58;;;;;;;0.15;0.15;;;15.90;99.90;;;;;;5002694;28;20030;-77
2022/11/18 12:54:46;;;;;;;0.10;0.10;;;15.90;99.90;;;;;;5002577;28;20021;-76
2022/11/18 12:57:19;;;;;;;0.10;0.10;;;16.00;99.90;;;;;;5002212;28;20042;-76
2022/11/18 12:59:45;;;;;;;0.10;0.10;;;15.80;99.90;;;;;;5002440;28;20026;-76
2022/11/18 13:02:11;;;;;;;0.17;0.17;;;15.80;99.90;;;;;;5002028;28;20033;-75
2022/11/18 13:04:40;;;;;;;0.20;0.20;;;15.80;99.90;;;;;;4984872;28;20052;-74
2022/11/18 13:08:11;;;;;;;0.10;0.10;;;15.70;99.90;;;;;;5001660;28;20014;-74
2022/11/18 13:09:57;;;;;;;0.28;0.28;;;15.70;99.90;;;;;;5001744;28;20037;-74
2022/11/18 13:12:27;;;;;;;0.10;0.10;;;15.80;99.90;;;;;;5002174;28;20047;-75
2022/11/18 13:17:57;;;;;;;0.10;0.10;;;15.80;99.90;;;;;;5001862;28;20533;-75
2022/11/18 13:20:40;;;;;;;0.10;0.10;;;15.80;99.90;;;;;;5001790;28;20018;-75
2022/11/18 13:26:17;;;;;;;0.10;0.10;;;15.80;99.90;;;;;;5001584;28;20116;-73
2022/11/18 13:29:08;;;;;;;0.20;0.20;;;16.00;99.90;;;;;;4971478;28;20026;-74
2022/11/18 13:31:46;;;;;;;0.10;0.10;;;15.70;99.90;;;;;;5001782;28;20713;-74
2022/11/18 13:34:24;;;;;;;6.93;2.75;;;17.10;99.90;;;;;;5001727;28;20084;-74
2022/11/18 13:36:52;;;;;;;0.10;0.10;;;15.70;99.90;;;;;;4984308;28;20722;-75